createdAt,value
2023-04-11T00:00:17.335Z,11.30
2023-04-11T00:02:49.378Z,11.31
2023-04-11T00:05:20.770Z,11.30
2023-04-11T00:07:54.522Z,11.23
2023-04-11T00:10:27.993Z,11.21
2023-04-11T00:13:02.698Z,10.93
2023-04-11T00:15:35.988Z,10.56
2023-04-11T00:18:07.274Z,10.79
2023-04-11T00:20:38.900Z,10.77
2023-04-11T00:23:10.405Z,10.93
2023-04-11T00:25:41.925Z,10.92
2023-04-11T00:28:15.993Z,10.61
2023-04-11T00:30:47.552Z,10.85
2023-04-11T00:33:19.211Z,10.97
2023-04-11T00:35:51.313Z,10.71
2023-04-11T00:38:22.706Z,10.95
2023-04-11T00:40:56.431Z,10.86
2023-04-11T00:43:33.683Z,10.48
2023-04-11T00:46:05.505Z,10.79
2023-04-11T00:48:37.385Z,10.79
2023-04-11T00:51:09.495Z,10.72
2023-04-11T00:53:42.167Z,10.86
2023-04-11T00:56:16.459Z,10.57
2023-04-11T00:58:51.478Z,10.83
2023-04-11T01:01:25.345Z,10.81
2023-04-11T01:03:57.109Z,10.85
2023-04-11T01:06:31.425Z,10.77
2023-04-11T01:09:06.006Z,10.83
2023-04-11T01:11:37.994Z,10.55
2023-04-11T01:14:14.264Z,10.88
2023-04-11T01:16:47.429Z,10.68
2023-04-11T01:19:22.802Z,10.86
2023-04-11T01:21:56.295Z,10.77
2023-04-11T01:24:31.502Z,10.51
2023-04-11T01:27:04.417Z,10.84
2023-04-11T01:29:36.196Z,10.69
2023-04-11T01:32:08.912Z,10.65
2023-04-11T01:34:45.635Z,10.40
2023-04-11T01:37:19.335Z,10.63
2023-04-11T01:39:54.535Z,10.52
2023-04-11T01:42:27.889Z,10.47
2023-04-11T01:45:10.757Z,10.57
2023-04-11T01:47:42.637Z,10.54
2023-04-11T01:50:14.716Z,10.46
2023-04-11T01:52:47.003Z,10.44
2023-04-11T01:55:21.370Z,10.22
2023-04-11T01:57:56.326Z,10.38
2023-04-11T02:00:29.579Z,10.42
2023-04-11T02:03:00.690Z,10.19
2023-04-11T02:05:32.227Z,10.44
2023-04-11T02:08:04.701Z,10.39
2023-04-11T02:10:41.057Z,10.32
2023-04-11T02:13:12.892Z,10.38
2023-04-11T02:15:43.602Z,10.32
2023-04-11T02:18:14.721Z,10.30
2023-04-11T02:20:48.141Z,10.28
2023-04-11T02:23:19.220Z,10.27
2023-04-11T02:25:53.804Z,10.26
2023-04-11T02:28:25.359Z,10.22
2023-04-11T02:30:57.494Z,10.20
2023-04-11T02:33:30.829Z,10.15
2023-04-11T02:36:02.150Z,10.06
2023-04-11T02:38:34.684Z,9.89
2023-04-11T02:41:09.038Z,9.71
2023-04-11T02:43:40.271Z,10.09
2023-04-11T02:46:13.049Z,10.07
2023-04-11T02:48:46.969Z,10.07
2023-04-11T02:51:18.124Z,10.09
2023-04-11T02:53:49.368Z,10.07
2023-04-11T02:56:25.510Z,10.02
2023-04-11T02:58:59.831Z,10.02
2023-04-11T03:01:32.256Z,10.08
2023-04-11T03:04:04.802Z,10.07
2023-04-11T03:06:47.432Z,10.05
2023-04-11T03:09:19.595Z,10.00
2023-04-11T03:11:55.077Z,10.06
2023-04-11T03:14:26.195Z,10.07
2023-04-11T03:16:58.439Z,9.85
2023-04-11T03:19:31.946Z,10.08
2023-04-11T03:22:04.807Z,10.10
2023-04-11T03:24:36.130Z,10.06
2023-04-11T03:27:09.665Z,9.66
2023-04-11T03:29:44.262Z,9.37
2023-04-11T03:32:24.532Z,9.17
2023-04-11T03:34:56.295Z,8.93
2023-04-11T03:37:27.218Z,8.79
2023-04-11T03:39:59.168Z,8.67
2023-04-11T03:42:41.269Z,8.73
2023-04-11T03:45:19.472Z,8.68
2023-04-11T03:47:51.373Z,8.64
2023-04-11T03:50:25.802Z,8.72
2023-04-11T03:53:01.589Z,8.66
2023-04-11T03:55:33.826Z,8.64
2023-04-11T03:58:09.633Z,8.70
2023-04-11T04:00:42.849Z,8.68
2023-04-11T04:03:15.895Z,8.41
2023-04-11T04:05:47.252Z,8.69
2023-04-11T04:08:18.937Z,8.66
2023-04-11T04:10:52.216Z,8.65
2023-04-11T04:13:26.121Z,8.57
2023-04-11T04:16:06.282Z,8.47
2023-04-11T04:18:37.377Z,8.60
2023-04-11T04:21:10.152Z,8.55
2023-04-11T04:23:47.948Z,8.58
2023-04-11T04:26:38.489Z,8.70
2023-04-11T04:29:24.331Z,8.49
2023-04-11T04:31:57.489Z,8.74
2023-04-11T04:34:47.050Z,8.84
2023-04-11T04:37:25.164Z,8.89
2023-04-11T04:40:08.070Z,8.94
2023-04-11T04:42:50.232Z,8.99
2023-04-11T04:45:24.574Z,8.95
2023-04-11T04:47:55.387Z,9.05
2023-04-11T04:50:26.197Z,9.06
2023-04-11T04:52:57.190Z,9.12
2023-04-11T04:55:29.133Z,9.14
2023-04-11T04:57:59.938Z,9.11
2023-04-11T05:00:34.271Z,8.90
2023-04-11T05:03:08.998Z,9.10
2023-04-11T05:05:40.478Z,9.07
2023-04-11T05:08:11.715Z,9.07
2023-04-11T05:10:42.974Z,9.13
2023-04-11T05:13:16.152Z,8.95
2023-04-11T05:15:54.784Z,9.20
2023-04-11T05:18:30.833Z,9.28
2023-04-11T05:21:02.911Z,9.25
2023-04-11T05:23:39.483Z,9.29
2023-04-11T05:26:11.086Z,9.32
2023-04-11T05:28:44.149Z,9.28
2023-04-11T05:31:23.163Z,9.21
2023-04-11T05:33:54.187Z,9.17
2023-04-11T05:36:28.734Z,9.19
2023-04-11T05:38:59.589Z,9.19
2023-04-11T05:41:32.428Z,9.24
2023-04-11T05:44:03.271Z,9.27
2023-04-11T05:46:37.507Z,9.28
2023-04-11T05:49:07.949Z,9.18
2023-04-11T05:51:38.522Z,9.02
2023-04-11T05:54:10.795Z,8.87
2023-04-11T05:56:42.605Z,8.78
2023-04-11T05:59:13.391Z,8.70
2023-04-11T06:01:46.567Z,8.67
2023-04-11T06:04:17.291Z,8.69
2023-04-11T06:06:50.451Z,8.63
2023-04-11T06:09:23.579Z,8.41
2023-04-11T06:11:54.416Z,8.78
2023-04-11T06:14:25.130Z,8.82
2023-04-11T06:16:58.349Z,8.80
2023-04-11T06:19:35.276Z,8.83
2023-04-11T06:22:08.369Z,8.62
2023-04-11T06:24:40.765Z,8.58
2023-04-11T06:27:12.646Z,8.38
2023-04-11T06:29:46.024Z,8.17
2023-04-11T06:32:20.085Z,8.09
2023-04-11T06:34:53.441Z,8.07
2023-04-11T06:37:24.440Z,8.07
2023-04-11T06:39:55.119Z,8.09
2023-04-11T06:42:26.202Z,8.07
2023-04-11T06:44:59.250Z,8.11
2023-04-11T06:47:32.578Z,8.14
2023-04-11T06:50:04.242Z,8.16
2023-04-11T06:52:35.029Z,8.25
2023-04-11T06:55:07.544Z,8.20
2023-04-11T06:57:38.149Z,8.30
2023-04-11T07:00:12.709Z,8.39
2023-04-11T07:02:46.576Z,8.47
2023-04-11T07:05:18.430Z,8.53
2023-04-11T07:07:58.039Z,8.67
2023-04-11T07:10:32.022Z,8.51
2023-04-11T07:13:02.662Z,9.03
2023-04-11T07:15:33.525Z,9.15
2023-04-11T07:18:07.352Z,9.28
2023-04-11T07:20:38.666Z,9.31
2023-04-11T07:23:09.508Z,9.28
2023-04-11T07:25:40.441Z,9.36
2023-04-11T07:28:11.086Z,9.39
2023-04-11T07:30:42.053Z,9.36
2023-04-11T07:33:17.655Z,9.38
2023-04-11T07:35:48.388Z,9.50
2023-04-11T07:38:29.758Z,9.52
2023-04-11T07:41:01.854Z,9.36
2023-04-11T07:43:32.815Z,9.54
2023-04-11T07:46:03.945Z,9.53
2023-04-11T07:48:37.357Z,9.59
2023-04-11T07:51:08.026Z,9.60
2023-04-11T07:53:38.687Z,9.64
2023-04-11T07:56:10.208Z,9.69
2023-04-11T07:58:40.841Z,9.84
2023-04-11T08:01:22.881Z,9.82
2023-04-11T08:03:56.984Z,9.85
2023-04-11T08:06:29.257Z,10.06
2023-04-11T08:09:01.204Z,10.16
2023-04-11T08:11:32.265Z,10.29
2023-04-11T08:14:03.425Z,10.50
2023-04-11T08:16:34.328Z,10.49
2023-04-11T08:19:07.680Z,10.54
2023-04-11T08:21:38.343Z,10.48
2023-04-11T08:24:10.378Z,10.63
2023-04-11T08:26:40.939Z,10.71
2023-04-11T08:29:13.160Z,10.81
2023-04-11T08:31:46.673Z,10.92
2023-04-11T08:34:19.959Z,11.03
2023-04-11T08:36:51.131Z,10.97
2023-04-11T08:39:21.708Z,11.12
2023-04-11T08:41:52.392Z,11.01
2023-04-11T08:44:23.084Z,10.83
2023-04-11T08:46:53.758Z,10.43
2023-04-11T08:49:29.217Z,10.60
2023-04-11T08:52:00.194Z,10.59
2023-04-11T08:54:30.880Z,10.59
2023-04-11T08:57:01.673Z,10.57
2023-04-11T08:59:32.462Z,10.66
2023-04-11T09:02:10.338Z,10.61
2023-04-11T09:04:47.700Z,10.86
2023-04-11T09:07:19.384Z,11.00
2023-04-11T09:09:50.174Z,10.92
2023-04-11T09:12:24.605Z,10.86
2023-04-11T09:14:55.261Z,10.92
2023-04-11T09:17:25.870Z,11.00
2023-04-11T09:19:59.737Z,11.41
2023-04-11T09:22:40.058Z,11.71
2023-04-11T09:25:12.403Z,11.97
2023-04-11T09:27:43.236Z,11.99
2023-04-11T09:30:27.195Z,12.04
2023-04-11T09:33:19.392Z,12.15
2023-04-11T09:35:54.496Z,12.30
2023-04-11T09:38:33.374Z,12.50
2023-04-11T09:41:05.733Z,12.63
2023-04-11T09:43:52.722Z,12.35
2023-04-11T09:46:25.021Z,11.94
2023-04-11T09:48:58.034Z,11.27
2023-04-11T09:51:35.913Z,11.25
2023-04-11T09:54:08.481Z,11.08
2023-04-11T09:56:40.126Z,11.04
2023-04-11T09:59:11.309Z,11.05
2023-04-11T10:01:42.392Z,10.91
2023-04-11T10:04:14.593Z,10.67
2023-04-11T10:06:57.795Z,10.39
2023-04-11T10:09:29.384Z,10.23
2023-04-11T10:12:00.226Z,10.29
2023-04-11T10:14:48.643Z,10.33
2023-04-11T10:17:23.381Z,10.38
2023-04-11T10:19:58.100Z,10.42
2023-04-11T10:23:10.609Z,10.55
2023-04-11T10:26:00.065Z,10.79
2023-04-11T10:28:35.650Z,11.24
2023-04-11T10:31:10.047Z,11.68
2023-04-11T10:33:41.255Z,11.81
2023-04-11T10:36:13.363Z,11.96
2023-04-11T10:38:51.453Z,12.06
2023-04-11T10:41:32.016Z,12.21
2023-04-11T10:44:21.197Z,12.55
2023-04-11T10:46:54.520Z,12.86
2023-04-11T10:49:38.607Z,13.01
2023-04-11T10:52:24.081Z,13.18
2023-04-11T10:54:56.740Z,13.45
2023-04-11T10:57:30.021Z,13.52
2023-04-11T11:00:11.281Z,13.39
2023-04-11T11:02:43.994Z,13.23
2023-04-11T11:05:19.717Z,13.01
2023-04-11T11:07:52.474Z,13.04
2023-04-11T11:10:39.218Z,13.24
2023-04-11T11:13:13.506Z,13.07
2023-04-11T11:15:50.481Z,13.16
2023-04-11T11:18:21.648Z,13.10
2023-04-11T11:20:58.208Z,12.96
2023-04-11T11:23:29.979Z,12.84
2023-04-11T11:26:03.194Z,12.77
2023-04-11T11:28:48.020Z,12.89
2023-04-11T11:31:18.795Z,12.92
2023-04-11T11:33:50.267Z,12.90
2023-04-11T11:36:21.067Z,12.81
2023-04-11T11:38:52.299Z,12.84
2023-04-11T11:41:23.107Z,12.86
2023-04-11T11:43:56.458Z,12.94
2023-04-11T11:46:30.345Z,13.10
2023-04-11T11:49:02.954Z,13.32
2023-04-11T11:51:43.892Z,13.46
2023-04-11T11:54:15.314Z,13.54
2023-04-11T11:56:53.498Z,13.75
2023-04-11T11:59:32.146Z,13.34
2023-04-11T12:02:03.030Z,13.39
2023-04-11T12:04:35.228Z,13.56
2023-04-11T12:07:11.591Z,13.77
2023-04-11T12:09:43.013Z,14.08
2023-04-11T12:12:13.998Z,14.29
2023-04-11T12:14:58.427Z,14.42
2023-04-11T12:17:36.340Z,14.32
2023-04-11T12:20:10.880Z,14.11
2023-04-11T12:22:41.911Z,14.21
2023-04-11T12:25:17.307Z,14.18
2023-04-11T12:27:50.344Z,14.07
2023-04-11T12:30:23.831Z,14.06
2023-04-11T12:32:57.326Z,14.33
2023-04-11T12:35:28.259Z,14.47
2023-04-11T12:37:59.040Z,14.86
2023-04-11T12:40:30.401Z,14.88
2023-04-11T12:43:01.273Z,14.69
2023-04-11T12:45:36.782Z,14.28
2023-04-11T12:48:07.956Z,14.07
2023-04-11T12:50:38.679Z,13.81
2023-04-11T12:53:09.437Z,13.45
2023-04-11T12:55:40.707Z,13.17
2023-04-11T12:58:11.718Z,13.00
2023-04-11T13:00:45.094Z,12.91
2023-04-11T13:03:16.285Z,12.58
2023-04-11T13:05:47.293Z,12.12
2023-04-11T13:08:18.143Z,11.89
2023-04-11T13:10:49.384Z,12.00
2023-04-11T13:13:20.006Z,12.03
2023-04-11T13:15:53.408Z,12.18
2023-04-11T13:18:24.263Z,12.31
2023-04-11T13:20:55.077Z,12.25
2023-04-11T13:23:26.243Z,11.82
2023-04-11T13:25:57.117Z,11.77
2023-04-11T13:28:28.566Z,11.81
2023-04-11T13:31:02.278Z,11.83
2023-04-11T13:33:33.023Z,11.95
2023-04-11T13:36:04.680Z,12.24
2023-04-11T13:38:35.865Z,12.46
2023-04-11T13:41:07.376Z,12.71
2023-04-11T13:43:39.748Z,12.75
2023-04-11T13:46:14.358Z,12.82
2023-04-11T13:48:45.126Z,12.78
2023-04-11T13:51:16.617Z,12.64
2023-04-11T13:53:47.769Z,12.56
2023-04-11T13:56:20.679Z,12.53
2023-04-11T13:58:52.715Z,12.29
2023-04-11T14:01:26.031Z,12.24
2023-04-11T14:03:57.069Z,12.15
2023-04-11T14:06:28.661Z,12.10
2023-04-11T14:09:00.129Z,12.10
2023-04-11T14:11:30.990Z,12.00
2023-04-11T14:14:02.004Z,11.38
2023-04-11T14:16:35.624Z,11.80
2023-04-11T14:19:06.464Z,11.76
2023-04-11T14:21:37.333Z,11.49
2023-04-11T14:24:08.909Z,11.66
2023-04-11T14:26:39.642Z,11.42
2023-04-11T14:29:10.585Z,11.11
2023-04-11T14:31:47.267Z,10.80
2023-04-11T14:34:18.775Z,10.64
2023-04-11T14:36:49.957Z,10.54
2023-04-11T14:39:20.988Z,10.89
2023-04-11T14:41:51.877Z,11.13
2023-04-11T14:44:22.972Z,11.69
2023-04-11T14:46:57.016Z,11.91
2023-04-11T14:49:27.692Z,12.33
2023-04-11T14:51:58.655Z,12.60
2023-04-11T14:54:29.326Z,12.83
2023-04-11T14:57:00.453Z,13.11
2023-04-11T14:59:31.050Z,13.17
2023-04-11T15:02:05.301Z,13.04
2023-04-11T15:04:36.373Z,12.72
2023-04-11T15:07:07.456Z,12.53
2023-04-11T15:09:38.173Z,12.40
2023-04-11T15:12:11.484Z,12.28
2023-04-11T15:14:42.321Z,11.93
2023-04-11T15:17:15.818Z,11.77
2023-04-11T15:19:46.941Z,11.78
2023-04-11T15:22:17.542Z,11.62
2023-04-11T15:24:48.428Z,11.76
2023-04-11T15:27:19.111Z,11.73
2023-04-11T15:29:52.032Z,11.53
2023-04-11T15:32:25.661Z,11.50
2023-04-11T15:34:56.969Z,11.39
2023-04-11T15:37:28.888Z,11.58
2023-04-11T15:40:01.295Z,11.75
2023-04-11T15:42:34.379Z,11.64
2023-04-11T15:45:05.735Z,11.48
2023-04-11T15:47:39.780Z,11.89
2023-04-11T15:50:12.348Z,11.99
2023-04-11T15:52:44.297Z,11.78
2023-04-11T15:55:16.008Z,11.62
2023-04-11T15:57:47.513Z,11.97
2023-04-11T16:00:22.911Z,11.97
2023-04-11T16:03:03.395Z,11.79
2023-04-11T16:05:36.987Z,12.14
2023-04-11T16:08:08.132Z,12.06
2023-04-11T16:10:39.167Z,11.90
2023-04-11T16:13:10.423Z,12.14
2023-04-11T16:15:42.128Z,12.14
2023-04-11T16:18:16.019Z,12.09
2023-04-11T16:20:47.017Z,12.13
2023-04-11T16:23:18.259Z,12.02
2023-04-11T16:25:49.110Z,12.02
2023-04-11T16:28:20.107Z,12.00
2023-04-11T16:30:51.017Z,12.06
2023-04-11T16:33:27.797Z,11.90
2023-04-11T16:35:58.717Z,11.75
2023-04-11T16:38:29.791Z,11.92
2023-04-11T16:41:04.450Z,11.49
2023-04-11T16:43:36.010Z,11.76
2023-04-11T16:46:08.286Z,11.73
2023-04-11T16:48:44.237Z,11.46
2023-04-11T16:51:19.353Z,10.50
2023-04-11T16:54:10.274Z,11.32
2023-04-11T16:56:46.561Z,11.51
2023-04-11T16:59:19.108Z,11.46
2023-04-11T17:01:54.793Z,11.46
2023-04-11T17:04:29.221Z,11.17
2023-04-11T17:07:00.482Z,11.14
2023-04-11T17:09:33.471Z,11.16
2023-04-11T17:12:05.127Z,11.34
2023-04-11T17:14:39.400Z,11.25
2023-04-11T17:17:10.643Z,11.27
2023-04-11T17:19:45.200Z,11.24
2023-04-11T17:22:16.473Z,11.14
2023-04-11T17:24:47.509Z,10.93
2023-04-11T17:27:18.228Z,11.11
2023-04-11T17:29:51.088Z,11.05
2023-04-11T17:32:22.335Z,11.02
2023-04-11T17:34:56.171Z,10.85
2023-04-11T17:37:27.166Z,11.06
2023-04-11T17:39:58.084Z,11.02
2023-04-11T17:42:29.011Z,10.90
2023-04-11T17:45:09.972Z,10.97
2023-04-11T17:47:45.576Z,10.95
2023-04-11T17:50:20.562Z,10.57
2023-04-11T17:52:51.717Z,10.68
2023-04-11T17:55:22.812Z,10.49
2023-04-11T17:57:55.000Z,10.52
2023-04-11T18:00:26.640Z,10.69
2023-04-11T18:02:59.940Z,10.39
2023-04-11T18:05:35.289Z,10.60
2023-04-11T18:08:06.514Z,10.34
2023-04-11T18:10:37.445Z,10.45
2023-04-11T18:13:08.817Z,10.42
2023-04-11T18:15:39.599Z,10.02
2023-04-11T18:18:11.425Z,10.28
2023-04-11T18:20:45.338Z,10.01
2023-04-11T18:23:16.147Z,9.76
2023-04-11T18:25:52.977Z,10.19
2023-04-11T18:28:24.077Z,9.99
2023-04-11T18:30:56.307Z,10.01
2023-04-11T18:33:30.384Z,9.62
2023-04-11T18:36:04.718Z,9.89
2023-04-11T18:38:36.452Z,9.48
2023-04-11T18:41:09.969Z,9.72
2023-04-11T18:43:41.603Z,9.68
2023-04-11T18:46:14.493Z,9.26
2023-04-11T18:48:46.270Z,9.56
2023-04-11T18:51:29.601Z,9.21
2023-04-11T18:54:05.175Z,9.37
2023-04-11T18:56:39.164Z,9.37
2023-04-11T18:59:14.934Z,9.39
2023-04-11T19:01:56.307Z,9.11
2023-04-11T19:04:29.185Z,9.33
2023-04-11T19:07:05.626Z,9.22
2023-04-11T19:09:37.490Z,9.02
2023-04-11T19:12:10.554Z,9.00
2023-04-11T19:15:01.196Z,8.50
2023-04-11T19:18:07.256Z,8.93
2023-04-11T19:20:57.399Z,9.19
2023-04-11T19:24:25.391Z,8.63
2023-04-11T19:27:22.636Z,8.88
2023-04-11T19:30:00.319Z,8.73
2023-04-11T19:33:07.956Z,7.90
2023-04-11T19:36:16.651Z,8.36
2023-04-11T19:39:05.137Z,7.99
2023-04-11T19:42:02.417Z,7.74
2023-04-11T19:45:13.565Z,8.91
2023-04-11T19:48:05.704Z,8.73
2023-04-11T19:50:46.268Z,8.88
2023-04-11T19:53:21.409Z,9.00
2023-04-11T19:55:55.557Z,8.28
2023-04-11T20:02:22.630Z,8.19
2023-04-11T20:05:30.078Z,7.63
2023-04-11T20:08:38.905Z,8.39
2023-04-11T20:11:45.311Z,8.19
2023-04-11T20:14:57.853Z,8.00
2023-04-11T20:20:45.877Z,7.56
2023-04-11T20:23:27.688Z,7.92
2023-04-11T20:26:23.565Z,8.62
2023-04-11T20:29:13.509Z,7.86
2023-04-11T20:32:02.178Z,8.31
2023-04-11T20:35:04.206Z,7.62
2023-04-11T20:37:56.309Z,8.30
2023-04-11T20:40:27.886Z,8.40
2023-04-11T20:43:05.518Z,8.41
2023-04-11T20:48:30.352Z,8.32
2023-04-11T20:51:08.370Z,8.19
2023-04-11T20:53:41.451Z,8.25
2023-04-11T20:56:19.362Z,8.19
2023-04-11T20:58:50.567Z,7.82
2023-04-11T21:01:21.787Z,8.03
2023-04-11T21:03:54.759Z,7.49
2023-04-11T21:06:29.469Z,7.97
2023-04-11T21:09:00.528Z,8.05
2023-04-11T21:11:33.584Z,7.95
2023-04-11T21:14:04.805Z,8.00
2023-04-11T21:16:36.084Z,7.75
2023-04-11T21:19:07.752Z,7.91
2023-04-11T21:21:43.450Z,7.35
2023-04-11T21:24:14.941Z,7.58
2023-04-11T21:26:46.687Z,7.55
2023-04-11T21:29:17.717Z,7.80
2023-04-11T21:31:48.770Z,7.77
2023-04-11T21:34:19.906Z,7.78
2023-04-11T21:36:55.807Z,7.43
2023-04-11T21:39:28.259Z,7.72
2023-04-11T21:42:00.843Z,7.63
2023-04-11T21:44:37.822Z,7.58
2023-04-11T21:47:11.023Z,7.35
2023-04-11T21:49:44.514Z,7.35
2023-04-11T21:52:19.125Z,7.57
2023-04-11T21:54:50.280Z,7.24
2023-04-11T21:57:23.169Z,7.43
2023-04-11T21:59:55.234Z,7.35
2023-04-11T22:02:29.210Z,6.98
2023-04-11T22:05:06.312Z,6.60
2023-04-11T22:07:55.449Z,7.21
2023-04-11T22:10:41.176Z,6.85
2023-04-11T22:13:18.679Z,7.01
2023-04-11T22:15:58.822Z,7.05
2023-04-11T22:18:30.158Z,6.78
2023-04-11T22:21:03.334Z,6.58
2023-04-11T22:23:37.332Z,6.68
2023-04-11T22:26:08.796Z,6.60
2023-04-11T22:28:42.105Z,6.78
2023-04-11T22:31:14.206Z,6.54
2023-04-11T22:33:45.366Z,6.74
2023-04-11T22:36:16.329Z,6.48
2023-04-11T22:38:50.738Z,6.74
2023-04-11T22:41:22.234Z,6.70
2023-04-11T22:43:53.501Z,6.42
2023-04-11T22:46:25.577Z,6.32
2023-04-11T22:48:58.097Z,6.63
2023-04-11T22:51:33.214Z,6.61
2023-04-11T22:54:10.367Z,6.48
2023-04-11T22:56:42.551Z,6.28
2023-04-11T22:59:13.785Z,6.11
2023-04-11T23:01:45.396Z,6.42
2023-04-11T23:04:17.507Z,6.19
2023-04-11T23:06:55.006Z,6.46
2023-04-11T23:09:29.809Z,6.43
2023-04-11T23:12:01.039Z,6.38
2023-04-11T23:14:32.700Z,6.29
2023-04-11T23:17:03.891Z,6.31
2023-04-11T23:19:35.756Z,6.28
2023-04-11T23:22:08.988Z,6.21
2023-04-11T23:24:43.433Z,6.20
2023-04-11T23:27:15.857Z,6.13
2023-04-11T23:29:53.902Z,5.81
2023-04-11T23:32:25.273Z,5.75
2023-04-11T23:34:56.552Z,6.11
2023-04-11T23:37:29.230Z,5.83
2023-04-11T23:40:10.152Z,5.83
2023-04-11T23:42:41.977Z,5.82
2023-04-11T23:45:15.234Z,6.06
2023-04-11T23:47:46.438Z,6.08
2023-04-11T23:50:17.981Z,5.98
2023-04-11T23:52:50.346Z,6.03
2023-04-11T23:55:24.305Z,6.07
2023-04-11T23:57:55.381Z,5.90
